Time;durP1;ratioP1;P1;durP2;ratioP2;P2;SDS_P1;SDS_P2;PMS_P1;PMS_P2;Temp;Humidity;BMP_temperature;BMP_pressure;BME280_temperature;BME280_humidity;BME280_pressure;Samples;Min_cycle;Max_cycle;Signal;HPM_P1;HPM_P2
2023/08/30 00:00:02;;;;;;;4.80;3.50;;;;;;;;;;5138348;27;20688;-62
2023/08/30 00:02:30;;;;;;;3.30;3.00;;;;;;;;;;5138778;27;20212;-62
2023/08/30 00:05:01;;;;;;;5.15;3.05;;;;;;;;;;5138431;27;20202;-62
2023/08/30 00:07:29;;;;;;;3.55;3.28;;;;;;;;;;5138558;27;20246;-62
2023/08/30 00:09:56;;;;;;;3.85;3.10;;;;;;;;;;5138618;27;20209;-62
2023/08/30 00:12:23;;;;;;;3.70;3.40;;;;;;;;;;5138356;27;20210;-62
2023/08/30 00:14:52;;;;;;;3.83;3.50;;;;;;;;;;5138863;27;20516;-62
2023/08/30 00:17:19;;;;;;;3.47;3.17;;;;;;;;;;5138456;27;20213;-62
2023/08/30 00:19:48;;;;;;;3.80;3.50;;;;;;;;;;5138422;27;20237;-62
2023/08/30 00:22:17;;;;;;;3.50;2.97;;;;;;;;;;5138787;27;20574;-62
2023/08/30 00:24:45;;;;;;;3.53;3.33;;;;;;;;;;5138767;27;20271;-62
2023/08/30 00:27:12;;;;;;;3.60;3.30;;;;;;;;;;5138466;27;20202;-62
2023/08/30 00:29:40;;;;;;;3.53;3.33;;;;;;;;;;5138046;27;20221;-63
2023/08/30 00:32:07;;;;;;;3.92;3.25;;;;;;;;;;5138287;27;20225;-62
2023/08/30 00:34:34;;;;;;;3.40;3.10;;;;;;;;;;5138296;27;20537;-62
2023/08/30 00:37:01;;;;;;;3.53;3.22;;;;;;;;;;5138798;27;20199;-62
2023/08/30 00:39:30;;;;;;;3.83;3.53;;;;;;;;;;5138001;27;20312;-62
2023/08/30 00:41:58;;;;;;;5.10;3.60;;;;;;;;;;5138335;28;20297;-62
2023/08/30 00:44:26;;;;;;;3.50;3.30;;;;;;;;;;5138169;27;20213;-62
2023/08/30 00:46:53;;;;;;;3.83;3.53;;;;;;;;;;5138231;27;20661;-62
2023/08/30 00:49:21;;;;;;;3.47;3.20;;;;;;;;;;5138532;27;20199;-62
2023/08/30 00:51:48;;;;;;;3.90;3.40;;;;;;;;;;5138507;27;20202;-62
2023/08/30 00:54:16;;;;;;;3.80;3.50;;;;;;;;;;5138270;27;20452;-62
2023/08/30 00:56:46;;;;;;;4.00;3.70;;;;;;;;;;5138400;27;20210;-62
2023/08/30 00:59:14;;;;;;;3.58;3.38;;;;;;;;;;5138187;27;20230;-62
2023/08/30 01:01:42;;;;;;;3.40;3.10;;;;;;;;;;5138058;28;20263;-62
2023/08/30 01:04:09;;;;;;;3.75;3.45;;;;;;;;;;5138092;27;20202;-63
2023/08/30 01:06:37;;;;;;;3.58;3.35;;;;;;;;;;5138195;27;20202;-63
2023/08/30 01:09:05;;;;;;;3.47;3.28;;;;;;;;;;5138227;27;20202;-62
2023/08/30 01:11:38;;;;;;;3.70;3.20;;;;;;;;;;5138146;28;20246;-62
2023/08/30 01:14:09;;;;;;;4.78;3.63;;;;;;;;;;5137701;27;20665;-62
2023/08/30 01:16:36;;;;;;;3.65;3.30;;;;;;;;;;5138098;27;20279;-62
2023/08/30 01:19:06;;;;;;;3.92;3.53;;;;;;;;;;5137557;27;20230;-62
2023/08/30 01:21:44;;;;;;;4.05;3.65;;;;;;;;;;5137885;27;20202;-62
2023/08/30 01:24:15;;;;;;;4.75;3.53;;;;;;;;;;5141514;27;20202;-62
2023/08/30 01:26:46;;;;;;;3.47;3.17;;;;;;;;;;5141632;27;20224;-62
2023/08/30 01:29:18;;;;;;;3.53;3.33;;;;;;;;;;5142062;27;20642;-62
2023/08/30 01:31:47;;;;;;;3.50;3.28;;;;;;;;;;5141283;27;20202;-62
2023/08/30 01:34:16;;;;;;;2.92;2.72;;;;;;;;;;5141397;27;20566;-62
2023/08/30 01:36:44;;;;;;;4.10;3.17;;;;;;;;;;5141878;27;20476;-62
2023/08/30 01:39:12;;;;;;;4.18;3.30;;;;;;;;;;5141327;27;20950;-62
2023/08/30 01:41:40;;;;;;;3.53;3.22;;;;;;;;;;5141525;27;20263;-62
2023/08/30 01:44:08;;;;;;;3.40;3.20;;;;;;;;;;5141381;27;20214;-62
2023/08/30 01:46:37;;;;;;;3.88;3.45;;;;;;;;;;5141496;27;20296;-62
2023/08/30 01:49:06;;;;;;;3.85;3.30;;;;;;;;;;5140511;27;20251;-62
2023/08/30 01:51:34;;;;;;;3.70;3.50;;;;;;;;;;5140994;27;20213;-62
2023/08/30 01:54:02;;;;;;;3.95;3.25;;;;;;;;;;5141282;27;20242;-62
2023/08/30 01:56:29;;;;;;;3.38;3.17;;;;;;;;;;5141137;27;20263;-62
2023/08/30 01:58:57;;;;;;;3.60;3.40;;;;;;;;;;5140851;27;20222;-62
2023/08/30 02:01:24;;;;;;;3.97;3.58;;;;;;;;;;5140931;27;20214;-62
2023/08/30 02:03:53;;;;;;;3.55;3.25;;;;;;;;;;5141047;27;20721;-62
2023/08/30 02:06:25;;;;;;;3.60;3.30;;;;;;;;;;5140912;27;20233;-62
2023/08/30 02:08:56;;;;;;;3.38;3.17;;;;;;;;;;5140792;27;20198;-62
2023/08/30 02:11:25;;;;;;;3.20;3.00;;;;;;;;;;5141214;27;20202;-62
2023/08/30 02:13:54;;;;;;;3.78;3.38;;;;;;;;;;5140726;27;20589;-62
2023/08/30 02:16:24;;;;;;;3.28;3.08;;;;;;;;;;5140624;27;20303;-62
2023/08/30 02:18:52;;;;;;;3.63;3.33;;;;;;;;;;5140189;27;20513;-62
2023/08/30 02:21:21;;;;;;;4.55;2.97;;;;;;;;;;5140477;27;20202;-62
2023/08/30 02:23:51;;;;;;;3.20;2.90;;;;;;;;;;5140413;27;20202;-62
2023/08/30 02:26:20;;;;;;;5.05;2.83;;;;;;;;;;5140004;27;20514;-62
2023/08/30 02:28:48;;;;;;;3.33;3.05;;;;;;;;;;5140299;27;20661;-62
2023/08/30 02:31:15;;;;;;;3.35;3.05;;;;;;;;;;5140272;27;20251;-62
2023/08/30 02:33:42;;;;;;;3.28;2.97;;;;;;;;;;5140301;27;20209;-63
2023/08/30 02:36:10;;;;;;;3.72;3.25;;;;;;;;;;5140158;27;20202;-62
2023/08/30 02:38:39;;;;;;;3.30;2.80;;;;;;;;;;5140648;27;20242;-62
2023/08/30 02:41:07;;;;;;;3.05;2.80;;;;;;;;;;5140245;27;20199;-62
2023/08/30 02:43:35;;;;;;;3.30;3.05;;;;;;;;;;5139867;27;20258;-62
2023/08/30 02:46:04;;;;;;;3.92;2.70;;;;;;;;;;5139969;27;20206;-62
2023/08/30 02:48:31;;;;;;;3.10;2.90;;;;;;;;;;5139995;27;20203;-62
2023/08/30 02:50:59;;;;;;;3.35;3.08;;;;;;;;;;5139896;27;20198;-62
2023/08/30 02:53:26;;;;;;;3.03;2.80;;;;;;;;;;5139853;27;20206;-62
2023/08/30 02:55:56;;;;;;;3.25;2.72;;;;;;;;;;5139929;27;20512;-62
2023/08/30 02:58:24;;;;;;;3.78;3.10;;;;;;;;;;5139865;27;20683;-62
2023/08/30 03:00:51;;;;;;;3.05;2.85;;;;;;;;;;5139906;27;20266;-62
2023/08/30 03:03:19;;;;;;;3.00;2.80;;;;;;;;;;5140136;27;20216;-62
2023/08/30 03:05:46;;;;;;;2.70;2.50;;;;;;;;;;5140073;27;20302;-62
2023/08/30 03:08:14;;;;;;;2.90;2.58;;;;;;;;;;5139686;27;20210;-62
2023/08/30 03:10:42;;;;;;;2.65;2.45;;;;;;;;;;5139492;27;20255;-62
2023/08/30 03:13:11;;;;;;;2.72;2.40;;;;;;;;;;5139290;27;20241;-62
2023/08/30 03:15:38;;;;;;;2.47;2.28;;;;;;;;;;5138834;27;20248;-62
2023/08/30 03:18:06;;;;;;;2.60;2.40;;;;;;;;;;5139134;27;20202;-62
2023/08/30 03:20:33;;;;;;;2.75;2.45;;;;;;;;;;5131411;27;20303;-62
2023/08/30 03:23:01;;;;;;;2.40;2.20;;;;;;;;;;5139173;27;20245;-63
2023/08/30 03:25:30;;;;;;;2.38;2.22;;;;;;;;;;5139463;27;20198;-62
2023/08/30 03:27:58;;;;;;;2.10;2.00;;;;;;;;;;5139528;27;20305;-62
2023/08/30 03:30:27;;;;;;;2.65;2.17;;;;;;;;;;5138926;27;20202;-62
2023/08/30 03:32:54;;;;;;;2.78;2.53;;;;;;;;;;5139045;27;20202;-62
2023/08/30 03:35:22;;;;;;;2.47;2.20;;;;;;;;;;5138944;27;20234;-62
2023/08/30 03:37:50;;;;;;;2.60;2.05;;;;;;;;;;5138468;27;20202;-62
2023/08/30 03:40:17;;;;;;;2.22;2.08;;;;;;;;;;5138833;27;20756;-62
2023/08/30 03:42:45;;;;;;;2.55;2.28;;;;;;;;;;5138634;27;20237;-62
2023/08/30 03:45:12;;;;;;;2.55;2.40;;;;;;;;;;5138383;27;20516;-63
2023/08/30 03:47:41;;;;;;;3.30;2.40;;;;;;;;;;5138937;27;20198;-64
2023/08/30 03:50:10;;;;;;;3.00;2.30;;;;;;;;;;5138244;27;20199;-63
2023/08/30 03:52:37;;;;;;;2.53;2.25;;;;;;;;;;5138322;27;20202;-62
2023/08/30 03:55:05;;;;;;;2.30;2.20;;;;;;;;;;5138188;27;20217;-62
2023/08/30 03:57:33;;;;;;;2.38;2.25;;;;;;;;;;5138598;27;20258;-62
2023/08/30 04:00:00;;;;;;;2.70;2.40;;;;;;;;;;5138089;27;20221;-62
2023/08/30 04:02:28;;;;;;;2.60;2.40;;;;;;;;;;5138342;27;20194;-62
2023/08/30 04:04:57;;;;;;;2.75;2.10;;;;;;;;;;5138558;27;20698;-62
2023/08/30 04:07:24;;;;;;;2.65;2.40;;;;;;;;;;5138165;27;20206;-62
2023/08/30 04:09:52;;;;;;;2.38;2.17;;;;;;;;;;5137855;27;20198;-62
2023/08/30 04:12:19;;;;;;;2.35;2.25;;;;;;;;;;5138429;27;20220;-62
2023/08/30 04:14:47;;;;;;;2.03;1.92;;;;;;;;;;5137683;27;20236;-62
2023/08/30 04:17:14;;;;;;;2.55;2.35;;;;;;;;;;5137713;27;20210;-62
2023/08/30 04:19:42;;;;;;;2.35;2.15;;;;;;;;;;5137612;27;20226;-62
2023/08/30 04:22:11;;;;;;;2.47;2.13;;;;;;;;;;5137610;27;20210;-62
2023/08/30 04:24:38;;;;;;;2.20;2.00;;;;;;;;;;5137559;27;20202;-62
2023/08/30 04:27:06;;;;;;;2.78;2.10;;;;;;;;;;5137865;27;20206;-62
2023/08/30 04:29:33;;;;;;;3.22;2.25;;;;;;;;;;5137286;27;20209;-62
2023/08/30 04:32:01;;;;;;;2.83;2.47;;;;;;;;;;5137915;27;20226;-62
2023/08/30 04:34:30;;;;;;;2.70;2.50;;;;;;;;;;5137626;27;20297;-62
2023/08/30 04:36:57;;;;;;;2.38;2.28;;;;;;;;;;5137380;27;20257;-63
2023/08/30 04:39:26;;;;;;;2.25;2.05;;;;;;;;;;5137140;27;20245;-62
2023/08/30 04:41:54;;;;;;;2.90;2.45;;;;;;;;;;5137648;27;20202;-63
2023/08/30 04:44:24;;;;;;;2.40;2.30;;;;;;;;;;5137515;27;20225;-63
2023/08/30 04:46:53;;;;;;;2.17;2.08;;;;;;;;;;5137091;27;20237;-62
2023/08/30 04:49:20;;;;;;;2.45;2.20;;;;;;;;;;5135932;27;20238;-63
2023/08/30 04:51:48;;;;;;;2.25;2.15;;;;;;;;;;5136300;27;20605;-63
2023/08/30 04:54:15;;;;;;;2.75;2.20;;;;;;;;;;5136209;27;20241;-63
2023/08/30 04:56:44;;;;;;;2.83;2.28;;;;;;;;;;5135677;27;20208;-65
2023/08/30 04:59:12;;;;;;;2.60;2.40;;;;;;;;;;5139858;27;20233;-62
2023/08/30 05:01:42;;;;;;;2.90;2.30;;;;;;;;;;5139293;27;20222;-62
2023/08/30 05:04:09;;;;;;;2.45;2.10;;;;;;;;;;5138561;27;20604;-65
2023/08/30 05:06:37;;;;;;;2.50;2.30;;;;;;;;;;5139543;27;20472;-63
2023/08/30 05:09:04;;;;;;;2.42;2.20;;;;;;;;;;5139443;27;20683;-62
2023/08/30 05:11:32;;;;;;;2.65;2.45;;;;;;;;;;5138581;27;20190;-62
2023/08/30 05:14:01;;;;;;;2.42;2.13;;;;;;;;;;5137944;27;20202;-62
2023/08/30 05:16:28;;;;;;;2.45;2.25;;;;;;;;;;5138262;27;20234;-62
2023/08/30 05:18:56;;;;;;;2.20;2.00;;;;;;;;;;5137826;27;20585;-64
2023/08/30 05:21:23;;;;;;;2.33;2.13;;;;;;;;;;5137953;27;20222;-63
2023/08/30 05:23:51;;;;;;;2.13;2.03;;;;;;;;;;5139441;27;20864;-63
2023/08/30 05:26:19;;;;;;;2.60;2.35;;;;;;;;;;5139833;27;20202;-63
2023/08/30 05:28:46;;;;;;;2.60;2.40;;;;;;;;;;5138511;27;20198;-63
2023/08/30 05:31:15;;;;;;;2.70;2.50;;;;;;;;;;5138432;27;20240;-63
2023/08/30 05:33:43;;;;;;;2.50;2.30;;;;;;;;;;5138510;27;20605;-63
2023/08/30 05:36:10;;;;;;;3.17;2.38;;;;;;;;;;5138631;27;20662;-64
2023/08/30 05:38:38;;;;;;;2.58;2.22;;;;;;;;;;5138505;27;20202;-64
2023/08/30 05:41:06;;;;;;;2.50;2.30;;;;;;;;;;5137581;27;20218;-63
2023/08/30 05:43:33;;;;;;;2.10;2.00;;;;;;;;;;5121521;27;20263;-63
2023/08/30 05:46:02;;;;;;;2.20;2.00;;;;;;;;;;5138463;27;20202;-63
2023/08/30 05:48:31;;;;;;;1.98;1.77;;;;;;;;;;5137873;27;20194;-64
2023/08/30 05:50:59;;;;;;;2.50;2.25;;;;;;;;;;5138088;27;20511;-64
2023/08/30 05:53:27;;;;;;;2.50;2.30;;;;;;;;;;5137523;27;20236;-64
2023/08/30 05:55:54;;;;;;;3.30;2.25;;;;;;;;;;5138029;27;20202;-64
2023/08/30 05:58:22;;;;;;;2.30;2.10;;;;;;;;;;5138315;27;20198;-64
2023/08/30 06:00:49;;;;;;;2.10;2.00;;;;;;;;;;5138140;27;20708;-64
2023/08/30 06:03:17;;;;;;;4.03;2.45;;;;;;;;;;5138237;27;20330;-64
2023/08/30 06:05:48;;;;;;;2.30;2.10;;;;;;;;;;5137343;27;20524;-64
2023/08/30 06:08:17;;;;;;;2.58;2.38;;;;;;;;;;5137370;27;20209;-64
2023/08/30 06:10:45;;;;;;;2.45;2.30;;;;;;;;;;5137702;27;20263;-63
2023/08/30 06:13:12;;;;;;;2.03;1.92;;;;;;;;;;5137537;27;20198;-64
2023/08/30 06:15:40;;;;;;;2.63;2.40;;;;;;;;;;5137472;27;20261;-64
2023/08/30 06:18:08;;;;;;;2.47;2.28;;;;;;;;;;5138779;27;20312;-63
2023/08/30 06:20:35;;;;;;;2.58;2.38;;;;;;;;;;5138493;27;20226;-63
2023/08/30 06:23:05;;;;;;;2.95;2.30;;;;;;;;;;5137844;27;20230;-64
2023/08/30 06:25:33;;;;;;;2.35;2.25;;;;;;;;;;5138506;27;20221;-63
2023/08/30 06:28:02;;;;;;;2.45;2.25;;;;;;;;;;5138479;27;20206;-63
2023/08/30 06:30:30;;;;;;;2.60;2.40;;;;;;;;;;5138140;27;20209;-63
2023/08/30 06:32:58;;;;;;;3.33;2.35;;;;;;;;;;5138071;27;20281;-64
2023/08/30 06:35:26;;;;;;;2.30;2.10;;;;;;;;;;5138046;27;20297;-64
2023/08/30 06:37:53;;;;;;;2.85;2.65;;;;;;;;;;5137807;27;20202;-64
2023/08/30 06:40:22;;;;;;;2.53;2.35;;;;;;;;;;5137814;27;20217;-63
2023/08/30 06:42:50;;;;;;;2.42;2.22;;;;;;;;;;5138315;27;20205;-63
2023/08/30 06:45:18;;;;;;;2.72;2.53;;;;;;;;;;5138672;27;20473;-63
2023/08/30 06:47:45;;;;;;;2.45;2.25;;;;;;;;;;5136630;27;20534;-63
2023/08/30 06:50:13;;;;;;;3.25;2.50;;;;;;;;;;5125498;27;20207;-63
2023/08/30 06:52:40;;;;;;;2.55;2.35;;;;;;;;;;5135692;27;20476;-64
2023/08/30 06:55:09;;;;;;;2.53;2.30;;;;;;;;;;5158627;27;20557;-64
2023/08/30 06:57:38;;;;;;;2.88;2.67;;;;;;;;;;5158493;27;20203;-63
2023/08/30 07:00:08;;;;;;;2.80;2.50;;;;;;;;;;5143622;27;20389;-63
2023/08/30 07:02:36;;;;;;;2.50;2.22;;;;;;;;;;5128531;27;20241;-62
2023/08/30 07:05:04;;;;;;;2.28;2.17;;;;;;;;;;5136814;27;20655;-63
2023/08/30 07:07:32;;;;;;;2.38;2.17;;;;;;;;;;5136961;27;20598;-63
2023/08/30 07:10:01;;;;;;;2.58;2.42;;;;;;;;;;5137150;27;20210;-63
2023/08/30 07:12:28;;;;;;;3.10;2.55;;;;;;;;;;5137844;27;20201;-63
2023/08/30 07:14:57;;;;;;;2.50;2.30;;;;;;;;;;5137025;27;20242;-63
2023/08/30 07:17:25;;;;;;;2.88;2.33;;;;;;;;;;5135923;27;20304;-63
2023/08/30 07:19:52;;;;;;;3.03;2.38;;;;;;;;;;5122122;27;20199;-63
2023/08/30 07:22:20;;;;;;;2.35;2.13;;;;;;;;;;5129443;27;20252;-63
2023/08/30 07:24:47;;;;;;;2.55;2.20;;;;;;;;;;5136840;27;20219;-62
2023/08/30 07:27:15;;;;;;;4.15;3.10;;;;;;;;;;5135800;27;20289;-62
2023/08/30 07:29:43;;;;;;;2.80;2.60;;;;;;;;;;5136837;27;20234;-62
2023/08/30 07:32:12;;;;;;;2.83;2.63;;;;;;;;;;5137247;27;20198;-64
2023/08/30 07:34:43;;;;;;;3.00;2.47;;;;;;;;;;5131912;27;20199;-62
2023/08/30 07:37:20;;;;;;;2.72;2.50;;;;;;;;;;5121102;27;20598;-63
2023/08/30 07:39:48;;;;;;;2.78;2.58;;;;;;;;;;5127476;27;20285;-63
2023/08/30 07:42:15;;;;;;;2.75;2.55;;;;;;;;;;5116593;28;20511;-62
2023/08/30 07:44:43;;;;;;;2.60;2.40;;;;;;;;;;5121278;27;20194;-62
2023/08/30 07:47:11;;;;;;;3.20;2.90;;;;;;;;;;5136276;27;20249;-64
2023/08/30 07:49:39;;;;;;;2.65;2.45;;;;;;;;;;5136037;27;20202;-64
2023/08/30 07:52:08;;;;;;;2.65;2.45;;;;;;;;;;5130791;27;20191;-62
2023/08/30 07:54:35;;;;;;;2.55;2.35;;;;;;;;;;5115351;28;20718;-63
2023/08/30 07:57:03;;;;;;;2.60;2.40;;;;;;;;;;5116006;28;20206;-62
2023/08/30 07:59:31;;;;;;;2.67;2.47;;;;;;;;;;5116320;28;20195;-63
2023/08/30 08:01:58;;;;;;;2.65;2.47;;;;;;;;;;5115561;28;20219;-62
2023/08/30 08:04:27;;;;;;;2.70;2.50;;;;;;;;;;5115542;28;20572;-62
2023/08/30 08:06:54;;;;;;;2.88;2.40;;;;;;;;;;5115475;28;20194;-62
2023/08/30 08:09:22;;;;;;;2.58;2.38;;;;;;;;;;5115439;28;20590;-62
2023/08/30 08:11:50;;;;;;;2.30;2.03;;;;;;;;;;5115621;28;20264;-63
2023/08/30 08:14:17;;;;;;;2.50;2.30;;;;;;;;;;5115747;28;20295;-63
2023/08/30 08:16:45;;;;;;;2.22;2.13;;;;;;;;;;5136171;27;20214;-63
2023/08/30 08:19:12;;;;;;;2.38;2.10;;;;;;;;;;5135994;28;20213;-63
2023/08/30 08:21:41;;;;;;;2.67;2.35;;;;;;;;;;5136380;27;20733;-63
2023/08/30 08:24:09;;;;;;;2.58;2.38;;;;;;;;;;5135963;27;20492;-63
2023/08/30 08:26:36;;;;;;;1.88;1.77;;;;;;;;;;5135584;27;20278;-63
2023/08/30 08:29:04;;;;;;;2.05;1.90;;;;;;;;;;5135390;27;20202;-63
2023/08/30 08:31:31;;;;;;;2.10;2.00;;;;;;;;;;5136458;27;20212;-63
2023/08/30 08:34:10;;;;;;;2.15;2.00;;;;;;;;;;5140095;27;20784;-63
2023/08/30 08:36:37;;;;;;;2.10;2.00;;;;;;;;;;5140205;27;20533;-63
2023/08/30 08:39:06;;;;;;;2.08;1.98;;;;;;;;;;5140182;27;20201;-63
2023/08/30 08:41:37;;;;;;;1.60;1.50;;;;;;;;;;5140242;27;20617;-62
2023/08/30 08:44:06;;;;;;;2.17;2.08;;;;;;;;;;5128598;27;20730;-63
2023/08/30 08:46:34;;;;;;;2.35;2.10;;;;;;;;;;5119698;28;20219;-63
2023/08/30 08:49:03;;;;;;;2.10;1.90;;;;;;;;;;5119718;28;20203;-63
2023/08/30 08:51:32;;;;;;;2.20;2.00;;;;;;;;;;5120271;28;20560;-63
2023/08/30 08:54:05;;;;;;;2.33;2.15;;;;;;;;;;5119646;28;20649;-63
2023/08/30 08:56:34;;;;;;;3.08;2.40;;;;;;;;;;5119443;28;20198;-63
2023/08/30 08:59:02;;;;;;;2.25;2.00;;;;;;;;;;5119018;28;20211;-63
2023/08/30 09:01:29;;;;;;;2.78;1.75;;;;;;;;;;5118735;28;20230;-63
2023/08/30 09:03:57;;;;;;;2.38;2.03;;;;;;;;;;5119501;28;20224;-62
2023/08/30 09:06:25;;;;;;;2.17;1.92;;;;;;;;;;5119063;28;20217;-63
2023/08/30 09:08:52;;;;;;;1.88;1.77;;;;;;;;;;5119243;28;20210;-63
2023/08/30 09:11:20;;;;;;;2.20;2.00;;;;;;;;;;5119179;28;20203;-63
2023/08/30 09:13:48;;;;;;;1.63;1.52;;;;;;;;;;5118736;28;20199;-62
2023/08/30 09:16:16;;;;;;;1.83;1.67;;;;;;;;;;5118691;28;20250;-62
2023/08/30 09:18:43;;;;;;;1.80;1.70;;;;;;;;;;5118998;28;20203;-63
2023/08/30 09:21:11;;;;;;;2.42;1.90;;;;;;;;;;5117969;28;20215;-62
2023/08/30 09:23:39;;;;;;;2.10;1.90;;;;;;;;;;5118816;28;20248;-62
2023/08/30 09:26:06;;;;;;;1.60;1.50;;;;;;;;;;5118613;28;20203;-62
2023/08/30 09:28:43;;;;;;;1.63;1.52;;;;;;;;;;5118815;28;20301;-64
2023/08/30 09:31:19;;;;;;;1.50;1.40;;;;;;;;;;5118833;28;20616;-63
2023/08/30 09:33:47;;;;;;;1.58;1.48;;;;;;;;;;5117792;28;20298;-63
2023/08/30 09:41:56;;;;;;;1.55;1.45;;;;;;;;;;4924512;26;20239;-63
2023/08/30 09:44:24;;;;;;;1.50;1.40;;;;;;;;;;5098191;28;20203;-62
2023/08/30 09:46:53;;;;;;;2.55;1.73;;;;;;;;;;5098669;28;20204;-62
2023/08/30 09:49:22;;;;;;;1.75;1.65;;;;;;;;;;5098606;28;20230;-62
2023/08/30 09:51:51;;;;;;;1.60;1.50;;;;;;;;;;5097033;28;20196;-62
2023/08/30 09:54:19;;;;;;;1.40;1.30;;;;;;;;;;5096877;28;20228;-62
2023/08/30 09:56:47;;;;;;;1.80;1.70;;;;;;;;;;5097879;28;20211;-62
2023/08/30 09:59:16;;;;;;;1.85;1.50;;;;;;;;;;5097215;28;20203;-62
2023/08/30 10:01:45;;;;;;;1.90;1.70;;;;;;;;;;5097179;28;20223;-62
2023/08/30 10:04:14;;;;;;;2.10;1.80;;;;;;;;;;5096812;28;20203;-62
2023/08/30 10:06:41;;;;;;;1.73;1.63;;;;;;;;;;5095739;28;20206;-62
2023/08/30 10:09:09;;;;;;;1.80;1.70;;;;;;;;;;5095700;28;20215;-62
2023/08/30 10:11:37;;;;;;;1.95;1.70;;;;;;;;;;5096100;28;20211;-62
2023/08/30 10:14:05;;;;;;;1.88;1.70;;;;;;;;;;5096221;28;20199;-62
2023/08/30 10:16:37;;;;;;;3.25;1.88;;;;;;;;;;5096680;28;20527;-63
2023/08/30 10:19:09;;;;;;;1.80;1.70;;;;;;;;;;5096161;28;20226;-63
2023/08/30 10:21:38;;;;;;;1.88;1.58;;;;;;;;;;5095665;28;20281;-63
2023/08/30 10:24:08;;;;;;;2.22;1.80;;;;;;;;;;5095700;28;20260;-63
2023/08/30 10:26:35;;;;;;;1.73;1.63;;;;;;;;;;5096736;28;20214;-62
2023/08/30 10:29:03;;;;;;;2.08;1.70;;;;;;;;;;5096679;28;20214;-62
2023/08/30 10:31:31;;;;;;;1.90;1.67;;;;;;;;;;5096332;28;20210;-62
2023/08/30 10:33:58;;;;;;;1.90;1.80;;;;;;;;;;5095531;28;20199;-62
2023/08/30 10:36:26;;;;;;;1.90;1.80;;;;;;;;;;5095749;28;20214;-62
2023/08/30 10:38:55;;;;;;;1.63;1.52;;;;;;;;;;5095939;28;20659;-62
2023/08/30 10:41:23;;;;;;;3.08;1.77;;;;;;;;;;5094376;28;20534;-62
2023/08/30 10:43:52;;;;;;;1.85;1.50;;;;;;;;;;5095594;28;20208;-62
2023/08/30 10:46:30;;;;;;;2.58;1.88;;;;;;;;;;5095782;28;20212;-62
2023/08/30 10:48:58;;;;;;;2.30;1.85;;;;;;;;;;5095972;28;20218;-62
2023/08/30 10:51:37;;;;;;;1.90;1.80;;;;;;;;;;5094666;28;20571;-62
2023/08/30 10:54:13;;;;;;;1.90;1.80;;;;;;;;;;5095412;28;20204;-62
2023/08/30 10:56:50;;;;;;;1.80;1.70;;;;;;;;;;5093333;28;20205;-62
2023/08/30 10:59:20;;;;;;;1.70;1.60;;;;;;;;;;5094574;28;20199;-62
2023/08/30 11:01:48;;;;;;;2.08;1.88;;;;;;;;;;5095003;28;20246;-62
2023/08/30 11:04:16;;;;;;;1.80;1.70;;;;;;;;;;5096158;28;20215;-62
2023/08/30 11:06:45;;;;;;;2.10;1.90;;;;;;;;;;5095249;28;20200;-63
2023/08/30 11:09:17;;;;;;;1.95;1.75;;;;;;;;;;5095385;28;20227;-63
2023/08/30 11:11:45;;;;;;;2.22;2.00;;;;;;;;;;5094986;28;20192;-62
2023/08/30 11:14:12;;;;;;;1.92;1.70;;;;;;;;;;5094531;28;20212;-62
2023/08/30 11:16:40;;;;;;;2.15;1.88;;;;;;;;;;5094454;28;20196;-62
2023/08/30 11:19:08;;;;;;;2.30;2.10;;;;;;;;;;5095113;28;20203;-63
2023/08/30 11:21:36;;;;;;;2.17;2.03;;;;;;;;;;5094478;28;20196;-63
2023/08/30 11:24:05;;;;;;;2.20;2.03;;;;;;;;;;5094107;28;20307;-63
2023/08/30 11:26:33;;;;;;;2.08;1.77;;;;;;;;;;5094337;28;20207;-63
2023/08/30 11:29:05;;;;;;;2.28;2.08;;;;;;;;;;5094704;28;20204;-63
2023/08/30 11:31:33;;;;;;;2.20;1.80;;;;;;;;;;5094476;28;20242;-62
2023/08/30 11:34:01;;;;;;;2.40;2.20;;;;;;;;;;5095071;28;20203;-62
2023/08/30 11:36:29;;;;;;;2.28;1.90;;;;;;;;;;5094569;28;20199;-63
2023/08/30 11:38:57;;;;;;;2.10;1.95;;;;;;;;;;5094180;28;20203;-63
2023/08/30 11:41:25;;;;;;;1.88;1.77;;;;;;;;;;5094097;28;20518;-62
2023/08/30 11:43:54;;;;;;;1.90;1.80;;;;;;;;;;5084721;28;20224;-62
2023/08/30 11:46:22;;;;;;;2.15;2.05;;;;;;;;;;5073756;28;20494;-62
2023/08/30 11:48:50;;;;;;;2.15;1.95;;;;;;;;;;5074605;28;20789;-63
2023/08/30 11:51:18;;;;;;;2.10;1.90;;;;;;;;;;5073984;28;20204;-63
2023/08/30 11:53:45;;;;;;;2.20;2.00;;;;;;;;;;5073692;28;20690;-62
2023/08/30 11:56:13;;;;;;;2.53;2.08;;;;;;;;;;5073940;28;20208;-62
2023/08/30 11:58:40;;;;;;;1.83;1.73;;;;;;;;;;5074005;28;20230;-62
2023/08/30 12:01:09;;;;;;;2.67;2.10;;;;;;;;;;5074071;28;20638;-62
2023/08/30 12:03:37;;;;;;;2.13;2.00;;;;;;;;;;5074845;28;20216;-62
2023/08/30 12:06:10;;;;;;;2.15;1.92;;;;;;;;;;5073205;28;20208;-62
2023/08/30 12:08:38;;;;;;;2.05;1.95;;;;;;;;;;5085068;28;20621;-62
2023/08/30 12:11:05;;;;;;;1.80;1.70;;;;;;;;;;5094371;28;20207;-63
2023/08/30 12:13:33;;;;;;;2.10;2.00;;;;;;;;;;5093816;28;20233;-63
2023/08/30 12:16:01;;;;;;;2.33;2.13;;;;;;;;;;5093724;28;20326;-62
2023/08/30 12:18:33;;;;;;;2.38;2.17;;;;;;;;;;5093443;28;20203;-62
2023/08/30 12:21:02;;;;;;;2.17;2.08;;;;;;;;;;5086412;28;20282;-62
2023/08/30 12:23:32;;;;;;;2.47;1.95;;;;;;;;;;5078413;28;20224;-62
2023/08/30 12:26:00;;;;;;;1.90;1.80;;;;;;;;;;5073506;28;20196;-62
2023/08/30 12:28:28;;;;;;;2.20;2.00;;;;;;;;;;5080885;28;20200;-63
2023/08/30 12:30:55;;;;;;;1.90;1.80;;;;;;;;;;5077636;28;20196;-63
2023/08/30 12:33:25;;;;;;;2.08;1.92;;;;;;;;;;5093422;28;20202;-63
2023/08/30 12:35:54;;;;;;;2.47;2.10;;;;;;;;;;5088912;28;20196;-62
2023/08/30 12:38:22;;;;;;;2.00;1.90;;;;;;;;;;5072532;28;20231;-62
2023/08/30 12:40:50;;;;;;;2.03;1.90;;;;;;;;;;5073763;28;20259;-62
2023/08/30 12:43:18;;;;;;;2.03;1.92;;;;;;;;;;5083243;28;20518;-62
2023/08/30 12:45:46;;;;;;;2.55;2.00;;;;;;;;;;5093877;28;20227;-63
2023/08/30 12:48:15;;;;;;;2.42;2.00;;;;;;;;;;5093434;28;20294;-62
2023/08/30 12:50:43;;;;;;;2.10;2.00;;;;;;;;;;5093143;28;20208;-62
2023/08/30 12:53:11;;;;;;;2.20;2.00;;;;;;;;;;5093468;28;20203;-63
2023/08/30 12:55:40;;;;;;;2.30;2.10;;;;;;;;;;5084549;28;20207;-63
2023/08/30 12:58:08;;;;;;;2.03;1.90;;;;;;;;;;5073373;28;20201;-62
2023/08/30 13:00:35;;;;;;;2.17;1.80;;;;;;;;;;5073165;28;20204;-62
2023/08/30 13:03:03;;;;;;;2.20;2.00;;;;;;;;;;5090636;28;20497;-62
2023/08/30 13:05:31;;;;;;;2.10;2.00;;;;;;;;;;5093385;28;20211;-62
2023/08/30 13:07:59;;;;;;;1.98;1.88;;;;;;;;;;5093246;28;20204;-63
2023/08/30 13:10:28;;;;;;;1.80;1.70;;;;;;;;;;5093124;28;20590;-63
2023/08/30 13:12:55;;;;;;;2.17;2.08;;;;;;;;;;5093209;28;20208;-63
2023/08/30 13:15:23;;;;;;;2.05;1.90;;;;;;;;;;5093353;28;20247;-63
2023/08/30 13:17:50;;;;;;;1.95;1.85;;;;;;;;;;5092508;28;20196;-63
2023/08/30 13:20:18;;;;;;;1.85;1.70;;;;;;;;;;5096834;28;20677;-63
2023/08/30 13:22:45;;;;;;;1.70;1.60;;;;;;;;;;5096965;28;20250;-63
2023/08/30 13:25:12;;;;;;;2.47;1.92;;;;;;;;;;5096570;28;20539;-63
2023/08/30 13:27:41;;;;;;;1.85;1.73;;;;;;;;;;5097561;28;20601;-62
2023/08/30 13:30:09;;;;;;;1.92;1.73;;;;;;;;;;5084786;28;20258;-62
2023/08/30 13:32:36;;;;;;;2.10;2.00;;;;;;;;;;5074552;28;20219;-62
2023/08/30 13:35:04;;;;;;;1.80;1.70;;;;;;;;;;5076032;28;20291;-62
2023/08/30 13:37:31;;;;;;;1.98;1.88;;;;;;;;;;5095295;28;20210;-62
2023/08/30 13:39:58;;;;;;;2.08;1.98;;;;;;;;;;5095503;28;20237;-63
2023/08/30 13:42:26;;;;;;;1.80;1.70;;;;;;;;;;5096020;28;20206;-63
2023/08/30 13:44:54;;;;;;;2.20;1.83;;;;;;;;;;5095929;28;20214;-63
2023/08/30 13:47:22;;;;;;;2.35;2.08;;;;;;;;;;5096265;28;20203;-63
2023/08/30 13:49:49;;;;;;;2.40;2.20;;;;;;;;;;5074487;28;20196;-63
2023/08/30 13:52:17;;;;;;;2.08;1.98;;;;;;;;;;5074729;28;20200;-63
2023/08/30 13:54:45;;;;;;;2.30;2.10;;;;;;;;;;5075645;28;20215;-63
2023/08/30 13:57:12;;;;;;;2.03;1.83;;;;;;;;;;5074850;28;20231;-63
2023/08/30 13:59:39;;;;;;;2.13;2.00;;;;;;;;;;5075831;28;20216;-63
2023/08/30 14:02:08;;;;;;;2.50;2.30;;;;;;;;;;5076067;28;20204;-63
2023/08/30 14:04:37;;;;;;;2.25;2.15;;;;;;;;;;5076672;28;20254;-63
2023/08/30 14:07:04;;;;;;;2.40;2.20;;;;;;;;;;5075440;28;20235;-63
2023/08/30 14:09:32;;;;;;;2.25;2.15;;;;;;;;;;5074983;28;20703;-63
2023/08/30 14:11:59;;;;;;;2.60;2.40;;;;;;;;;;5075393;28;20197;-63
2023/08/30 14:14:27;;;;;;;2.20;2.10;;;;;;;;;;5074769;28;20204;-63
2023/08/30 14:16:54;;;;;;;2.13;2.03;;;;;;;;;;5074633;28;20204;-63
2023/08/30 14:19:23;;;;;;;2.08;1.98;;;;;;;;;;5075078;28;20467;-63
2023/08/30 14:21:54;;;;;;;2.10;1.80;;;;;;;;;;5074750;28;20200;-63
2023/08/30 14:24:23;;;;;;;2.38;2.17;;;;;;;;;;5074858;28;20277;-63
2023/08/30 14:26:50;;;;;;;2.50;2.30;;;;;;;;;;5075362;28;20204;-63
2023/08/30 14:29:21;;;;;;;2.38;2.17;;;;;;;;;;5074109;28;20193;-63
2023/08/30 14:31:49;;;;;;;2.78;2.58;;;;;;;;;;5074935;28;20231;-63
2023/08/30 14:34:16;;;;;;;2.90;2.70;;;;;;;;;;5084528;28;20573;-62
2023/08/30 14:36:45;;;;;;;3.05;2.85;;;;;;;;;;5081591;28;20203;-62
2023/08/30 14:39:13;;;;;;;2.72;2.53;;;;;;;;;;5075894;28;20215;-62
2023/08/30 14:41:40;;;;;;;2.70;2.50;;;;;;;;;;5057267;28;20255;-62
2023/08/30 14:44:08;;;;;;;2.72;2.53;;;;;;;;;;5055710;28;20228;-62
2023/08/30 14:46:36;;;;;;;2.83;2.63;;;;;;;;;;5055876;28;20296;-62
2023/08/30 14:49:03;;;;;;;2.80;2.60;;;;;;;;;;5055393;28;20287;-62
2023/08/30 14:51:31;;;;;;;2.83;2.63;;;;;;;;;;5054631;28;20240;-62
2023/08/30 14:53:59;;;;;;;3.72;2.88;;;;;;;;;;5055001;28;20193;-62